createdAt,value
2018-02-20T06:02:45.434Z,88.30
2018-02-20T06:05:13.491Z,88.10
2018-02-20T06:07:42.476Z,88.60
2018-02-20T06:10:09.981Z,88.60
2018-02-20T06:12:39.161Z,89.00
2018-02-20T06:15:08.043Z,88.90
2018-02-20T06:47:38.457Z,89.20
2018-02-20T06:50:05.966Z,89.80
2018-02-20T06:52:33.458Z,90.00
2018-02-20T06:55:01.024Z,89.90
2018-02-20T06:57:28.597Z,89.70
2018-02-20T06:59:56.106Z,89.70
2018-02-20T07:02:23.633Z,89.20
2018-02-20T07:04:51.252Z,89.00
2018-02-20T07:07:18.754Z,89.10
2018-02-20T07:09:46.259Z,87.80
2018-02-20T07:12:14.007Z,88.30
2018-02-20T07:14:41.496Z,89.00
2018-02-20T07:17:11.012Z,88.60
2018-02-20T07:19:38.530Z,88.30
2018-02-20T07:22:06.849Z,88.10
2018-02-20T07:24:34.364Z,87.70
2018-02-20T07:27:01.857Z,87.50
2018-02-20T07:29:29.392Z,87.50
2018-02-20T07:31:56.917Z,86.80
2018-02-20T07:34:24.454Z,86.70
2018-02-20T07:36:51.970Z,87.30
2018-02-20T07:39:19.464Z,87.40
2018-02-20T07:41:47.158Z,86.80
2018-02-20T07:44:14.657Z,86.90
2018-02-20T07:46:42.185Z,87.20
2018-02-20T07:49:09.683Z,87.40
2018-02-20T07:51:37.201Z,86.90
2018-02-20T07:54:04.800Z,86.90
2018-02-20T07:56:32.317Z,86.80
2018-02-20T07:58:59.823Z,86.10
2018-02-20T08:01:28.483Z,85.70
2018-02-20T08:03:56.769Z,86.30
2018-02-20T08:06:24.336Z,86.20
2018-02-20T08:08:51.874Z,85.90
2018-02-20T08:11:20.152Z,85.00
2018-02-20T08:13:48.437Z,85.00
2018-02-20T08:16:16.558Z,84.40
2018-02-20T08:18:44.064Z,84.00
2018-02-20T08:21:11.625Z,83.20
2018-02-20T08:23:39.173Z,83.30
2018-02-20T08:26:06.830Z,83.10
2018-02-20T08:28:35.222Z,84.10
2018-02-20T08:31:03.388Z,83.90
2018-02-20T08:33:31.650Z,82.20
2018-02-20T08:35:59.260Z,82.20
2018-02-20T08:38:26.754Z,82.20
2018-02-20T08:40:54.360Z,82.30
2018-02-20T08:43:22.089Z,82.40
2018-02-20T08:45:50.356Z,82.40
2018-02-20T08:48:18.675Z,81.20
2018-02-20T08:50:46.213Z,81.20
2018-02-20T08:53:13.757Z,82.10
2018-02-20T08:55:42.186Z,82.40
2018-02-20T08:58:09.829Z,81.60
2018-02-20T09:00:37.391Z,82.00
2018-02-20T09:03:05.812Z,82.60
2018-02-20T09:05:33.312Z,81.10
2018-02-20T09:08:01.621Z,81.10
2018-02-20T09:10:29.425Z,81.00
2018-02-20T09:12:58.515Z,79.50
2018-02-20T09:15:26.404Z,79.50
2018-02-20T09:17:54.825Z,79.70
2018-02-20T09:20:22.347Z,79.70
2018-02-20T09:22:51.361Z,79.30
2018-02-20T09:25:19.980Z,79.10
2018-02-20T09:27:47.805Z,79.30
2018-02-20T09:30:16.432Z,78.20
2018-02-20T09:32:44.047Z,77.80
2018-02-20T09:35:13.258Z,78.00
2018-02-20T09:37:40.786Z,79.20
2018-02-20T09:40:09.066Z,78.90
2018-02-20T09:42:37.314Z,77.10
2018-02-20T09:45:05.330Z,77.10
2018-02-20T09:47:32.841Z,78.20
2018-02-20T09:50:00.930Z,77.30
2018-02-20T09:52:30.692Z,76.90
2018-02-20T09:54:59.561Z,77.70
2018-02-20T09:57:28.159Z,76.60
2018-02-20T09:59:57.649Z,76.80
2018-02-20T10:02:25.242Z,78.80
2018-02-20T10:04:59.073Z,79.10
2018-02-20T10:07:26.857Z,78.60
2018-02-20T10:09:54.453Z,77.60
2018-02-20T10:12:22.726Z,76.90
2018-02-20T10:14:50.220Z,75.90
2018-02-20T10:17:18.514Z,76.60
2018-02-20T10:19:50.409Z,76.40
2018-02-20T10:22:19.549Z,75.10
2018-02-20T10:24:48.916Z,74.90
2018-02-20T10:27:17.778Z,75.30
2018-02-20T10:29:45.370Z,74.80
2018-02-20T10:32:12.882Z,74.60
2018-02-20T10:34:43.892Z,74.20
2018-02-20T10:37:14.225Z,73.40
2018-02-20T10:39:42.681Z,71.40
2018-02-20T10:42:11.540Z,72.30
2018-02-20T10:44:39.862Z,71.80
2018-02-20T10:47:07.451Z,71.30
2018-02-20T10:49:36.266Z,72.10
2018-02-20T10:52:04.617Z,71.50
2018-02-20T10:54:33.700Z,70.00
2018-02-20T10:57:01.297Z,70.00
2018-02-20T10:59:29.499Z,70.20
2018-02-20T11:01:58.951Z,69.80
2018-02-20T11:04:27.026Z,69.20
2018-02-20T11:06:54.573Z,70.30
2018-02-20T11:09:22.131Z,71.50
2018-02-20T11:11:50.401Z,71.40
2018-02-20T11:14:17.944Z,71.30
2018-02-20T11:16:45.506Z,71.30
2018-02-20T11:19:13.021Z,72.30
2018-02-20T11:21:40.775Z,74.20
2018-02-20T11:24:09.034Z,73.20
2018-02-20T11:26:36.594Z,73.30
2018-02-20T11:29:04.279Z,72.90
2018-02-20T11:31:31.815Z,74.50
2018-02-20T11:33:59.424Z,72.70
2018-02-20T11:36:27.655Z,72.70
2018-02-20T11:38:56.677Z,72.10
2018-02-20T11:41:24.193Z,72.10
2018-02-20T11:43:53.904Z,72.10
2018-02-20T11:46:22.910Z,71.10
2018-02-20T11:48:51.195Z,72.90
2018-02-20T11:51:19.455Z,73.60
2018-02-20T11:53:46.974Z,73.60
2018-02-20T11:56:14.855Z,74.00
2018-02-20T11:58:42.396Z,73.60
2018-02-20T12:01:10.455Z,73.40
2018-02-20T12:03:38.000Z,74.00
2018-02-20T12:06:05.751Z,75.10
2018-02-20T12:08:33.404Z,73.20
2018-02-20T12:11:01.692Z,74.30
2018-02-20T12:13:29.197Z,74.30
2018-02-20T12:15:56.716Z,71.70
2018-02-20T12:18:24.201Z,70.90
2018-02-20T12:20:51.724Z,70.80
2018-02-20T12:23:19.229Z,73.30
2018-02-20T12:25:46.864Z,73.90
2018-02-20T12:28:14.366Z,73.60
2018-02-20T12:30:41.949Z,72.70
2018-02-20T12:33:10.629Z,74.00
2018-02-20T12:35:38.123Z,73.90
2018-02-20T12:38:05.637Z,74.60
2018-02-20T12:40:33.137Z,72.80
2018-02-20T12:43:00.669Z,73.00
2018-02-20T12:45:28.172Z,73.90
2018-02-20T12:47:55.864Z,73.00
2018-02-20T12:50:23.316Z,71.40
2018-02-20T12:52:51.740Z,71.10
2018-02-20T12:55:20.122Z,71.00
2018-02-20T12:57:47.619Z,71.10
2018-02-20T13:00:15.172Z,71.40
2018-02-20T13:02:42.817Z,73.80
2018-02-20T13:05:10.343Z,75.00
2018-02-20T13:07:37.865Z,75.10
2018-02-20T13:10:05.384Z,74.60
2018-02-20T13:12:32.982Z,72.70
2018-02-20T13:15:00.488Z,72.70
2018-02-20T13:17:28.015Z,74.20
2018-02-20T13:19:55.526Z,75.80
2018-02-20T13:22:23.128Z,74.60
2018-02-20T13:24:50.666Z,74.00
2018-02-20T14:03:56.991Z,75.30
2018-02-20T14:06:24.904Z,75.50
2018-02-20T14:08:52.439Z,75.30
2018-02-20T14:11:19.953Z,75.80
2018-02-20T14:13:47.716Z,76.30
2018-02-20T14:16:15.610Z,75.50
2018-02-20T14:18:43.211Z,75.90
2018-02-20T14:21:10.724Z,77.10
2018-02-20T14:23:38.226Z,75.70
2018-02-20T14:26:06.020Z,76.40
2018-02-20T14:28:33.542Z,75.90
2018-02-20T14:31:01.258Z,76.10
2018-02-20T14:33:28.774Z,75.90
2018-02-20T14:35:56.326Z,76.90
2018-02-20T14:38:23.870Z,76.10
2018-02-20T14:40:51.384Z,76.40
2018-02-20T14:43:19.169Z,76.80
2018-02-20T14:45:46.659Z,78.50
2018-02-20T14:48:14.177Z,78.50
2018-02-20T14:50:41.685Z,77.80
2018-02-20T14:53:09.307Z,79.10
2018-02-20T14:55:36.910Z,78.90
2018-02-20T14:58:04.460Z,78.40
2018-02-20T15:00:32.862Z,79.70
2018-02-20T15:03:01.360Z,79.70
2018-02-20T15:05:30.048Z,80.20
2018-02-20T15:07:57.602Z,81.40
2018-02-20T15:10:26.844Z,81.00
2018-02-20T15:12:54.490Z,80.90
2018-02-20T15:15:22.194Z,82.00
2018-02-20T15:17:49.720Z,82.40
2018-02-20T15:20:18.020Z,82.70
2018-02-20T15:22:45.538Z,82.70
2018-02-20T15:25:13.041Z,83.20
2018-02-20T15:27:40.570Z,83.90
2018-02-20T15:30:08.840Z,85.20
2018-02-20T15:32:36.394Z,85.20
2018-02-20T15:35:03.945Z,85.40
2018-02-20T15:37:32.363Z,86.20
2018-02-20T15:39:59.922Z,86.00
2018-02-20T15:42:27.457Z,85.50
2018-02-20T15:44:55.028Z,85.60
2018-02-20T15:47:23.416Z,87.10
2018-02-20T15:49:50.981Z,87.10
2018-02-20T15:52:18.511Z,87.10
2018-02-20T15:54:47.547Z,87.20
2018-02-20T15:57:15.977Z,87.10
2018-02-20T15:59:46.027Z,86.60
2018-02-20T16:02:13.543Z,86.60
2018-02-20T16:04:41.866Z,87.40
2018-02-20T16:07:09.384Z,87.40
2018-02-20T16:09:37.012Z,86.70
2018-02-20T16:12:04.550Z,86.70
2018-02-20T16:14:32.826Z,86.90
2018-02-20T16:17:01.386Z,86.90
2018-02-20T16:19:28.941Z,88.10
2018-02-20T16:21:56.832Z,88.10
2018-02-20T16:24:24.366Z,88.70
2018-02-20T16:26:51.894Z,88.10
2018-02-20T16:29:19.426Z,88.70
2018-02-20T16:31:47.268Z,88.30
2018-02-20T16:34:14.778Z,89.00
2018-02-20T16:36:42.284Z,89.50
2018-02-20T16:39:09.867Z,89.30
2018-02-20T16:41:37.404Z,89.40
2018-02-20T16:44:05.051Z,89.70
2018-02-20T16:46:32.595Z,90.10
2018-02-20T16:49:00.238Z,90.30
2018-02-20T16:51:27.776Z,90.20
2018-02-20T16:53:55.276Z,90.50
2018-02-20T16:56:22.807Z,90.40
2018-02-20T16:58:50.348Z,90.70
2018-02-20T17:01:17.854Z,90.70
2018-02-20T17:03:45.379Z,90.50
2018-02-20T17:06:14.263Z,90.50
2018-02-20T17:08:41.804Z,90.50
2018-02-20T17:11:09.359Z,90.40
2018-02-20T17:13:36.874Z,90.40
2018-02-20T17:16:04.380Z,90.50
2018-02-20T17:18:31.915Z,90.40
2018-02-20T17:20:59.590Z,90.80
2018-02-20T17:23:27.765Z,90.80
2018-02-20T17:25:55.271Z,90.90
2018-02-20T17:28:22.797Z,90.90
2018-02-20T17:30:50.310Z,90.70
2018-02-20T17:33:19.333Z,91.00
2018-02-20T17:35:46.849Z,90.90
2018-02-20T17:38:14.349Z,90.80
2018-02-20T17:40:41.946Z,90.90
2018-02-20T17:43:09.469Z,91.00
2018-02-20T17:45:37.048Z,91.10
2018-02-20T17:48:04.615Z,91.40
2018-02-20T17:50:32.244Z,91.50
2018-02-20T17:52:59.756Z,91.50
2018-02-20T17:55:27.269Z,91.60
2018-02-20T17:57:54.783Z,91.40
2018-02-20T18:00:22.296Z,91.70
2018-02-20T18:02:49.866Z,91.70
2018-02-20T18:05:17.602Z,91.60
2018-02-20T18:07:46.283Z,91.70
2018-02-20T18:10:13.795Z,91.60
2018-02-20T18:12:42.008Z,91.70
2018-02-20T18:15:10.400Z,91.50
2018-02-20T18:17:37.944Z,91.50
2018-02-20T18:20:07.044Z,91.50
2018-02-20T18:22:36.535Z,91.60
2018-02-20T18:25:10.370Z,91.60
2018-02-20T18:27:37.888Z,91.50
2018-02-20T18:30:06.607Z,91.50
2018-02-20T18:32:35.699Z,91.50
2018-02-20T18:35:04.764Z,91.50
2018-02-20T18:37:32.347Z,91.40
2018-02-20T18:39:59.887Z,91.40
2018-02-20T18:42:27.395Z,91.70
2018-02-20T18:44:55.059Z,91.50
2018-02-20T18:47:22.578Z,91.50
2018-02-20T18:49:50.295Z,91.70
2018-02-20T18:52:17.811Z,91.60
2018-02-20T18:54:46.177Z,91.60
2018-02-20T18:57:13.668Z,91.60
2018-02-20T19:53:37.928Z,91.70
2018-02-20T19:56:06.378Z,91.70
2018-02-20T19:58:33.913Z,91.90
2018-02-20T20:01:02.142Z,91.80
2018-02-20T20:03:30.239Z,92.00
2018-02-20T20:05:58.690Z,91.90
2018-02-20T20:08:27.412Z,92.00
2018-02-20T20:10:54.953Z,92.20
2018-02-20T20:24:25.626Z,91.70
2018-02-20T20:26:53.155Z,91.70
2018-02-20T20:29:21.616Z,91.80
2018-02-20T20:31:50.045Z,91.80
2018-02-20T20:34:18.831Z,91.80
2018-02-20T20:36:48.635Z,91.30
2018-02-20T20:39:16.271Z,91.10
2018-02-20T20:41:43.866Z,91.10
2018-02-20T20:44:11.376Z,91.30
2018-02-20T20:46:39.668Z,91.40
2018-02-20T20:49:07.214Z,91.40
2018-02-20T20:51:36.114Z,91.60
2018-02-20T20:54:04.841Z,91.40
2018-02-20T20:56:32.492Z,91.30
2018-02-20T20:59:00.107Z,91.20
2018-02-20T21:01:28.491Z,91.40
2018-02-20T21:03:55.995Z,91.70
2018-02-20T21:06:23.633Z,90.90
2018-02-20T21:08:51.147Z,91.10
2018-02-20T21:11:18.661Z,91.70
2018-02-20T21:13:46.178Z,91.30
2018-02-20T21:16:13.687Z,91.30
2018-02-20T21:18:41.333Z,91.30
2018-02-20T21:21:08.860Z,91.40
2018-02-20T21:23:37.160Z,91.40
2018-02-20T21:26:04.656Z,91.40
2018-02-20T21:28:32.193Z,91.20
2018-02-20T21:30:59.728Z,91.40
2018-02-20T21:33:27.260Z,91.20
2018-02-20T21:35:54.784Z,91.20
2018-02-20T21:38:22.290Z,91.20
2018-02-20T21:40:49.968Z,91.40
2018-02-20T21:43:17.819Z,91.50
2018-02-20T21:45:46.229Z,91.30
2018-02-20T21:48:13.758Z,91.20
2018-02-20T21:50:42.066Z,91.40
2018-02-20T21:53:09.591Z,91.30
2018-02-20T21:55:37.980Z,91.30
2018-02-20T21:58:05.509Z,91.20
2018-02-20T22:00:33.763Z,91.30
2018-02-20T22:03:01.295Z,91.30
2018-02-20T22:05:28.824Z,91.30
2018-02-20T22:07:56.357Z,91.50
2018-02-20T22:10:23.864Z,91.30
2018-02-20T22:12:51.354Z,91.40
2018-02-20T22:15:18.897Z,91.20
2018-02-20T22:17:46.394Z,91.20
2018-02-20T22:20:13.929Z,91.30
2018-02-20T22:22:41.425Z,91.20
2018-02-20T22:25:08.923Z,91.20
2018-02-20T22:27:36.463Z,91.40
